Time;durP1;ratioP1;P1;durP2;ratioP2;P2;SDS_P1;SDS_P2;PMS_P1;PMS_P2;Temp;Humidity;BMP_temperature;BMP_pressure;BME280_temperature;BME280_humidity;BME280_pressure;Samples;Min_cycle;Max_cycle;Signal;HPM_P1;HPM_P2
2021/10/24 00:03:07;;;;;;;3.60;2.30;;;17.30;57.70;;;;;;10357724;28;20225;-67
2021/10/24 00:08:29;;;;;;;2.80;2.00;;;17.40;57.50;;;;;;10343333;28;20219;-67
2021/10/24 00:13:51;;;;;;;3.80;1.93;;;17.30;57.50;;;;;;10348850;28;20198;-66
2021/10/24 00:19:14;;;;;;;3.30;2.30;;;17.30;57.60;;;;;;10332234;28;20592;-67
2021/10/24 00:24:37;;;;;;;3.80;2.43;;;17.30;57.30;;;;;;10345265;28;20214;-67
2021/10/24 00:29:59;;;;;;;4.77;2.53;;;17.30;57.10;;;;;;10363272;28;20233;-66
2021/10/24 00:35:22;;;;;;;3.50;2.50;;;17.30;57.40;;;;;;10351003;28;20225;-66
2021/10/24 00:40:44;;;;;;;4.33;2.87;;;17.30;57.20;;;;;;10328730;28;20219;-66
2021/10/24 00:46:06;;;;;;;3.93;2.60;;;17.30;57.00;;;;;;10334017;28;20226;-67
2021/10/24 00:51:30;;;;;;;6.47;2.73;;;17.30;57.20;;;;;;10367539;28;20505;-66
2021/10/24 00:56:54;;;;;;;3.90;2.53;;;17.30;57.20;;;;;;10349950;28;20202;-66
2021/10/24 01:02:17;;;;;;;3.13;2.40;;;17.30;57.00;;;;;;10365830;28;20221;-66
2021/10/24 01:07:44;;;;;;;3.97;2.53;;;17.30;56.80;;;;;;10333373;28;20187;-67
2021/10/24 01:13:07;;;;;;;3.93;2.40;;;17.30;57.10;;;;;;10351966;28;20191;-67
2021/10/24 01:18:29;;;;;;;3.97;2.37;;;17.30;56.90;;;;;;10328290;28;20226;-67
2021/10/24 01:23:52;;;;;;;3.23;2.60;;;17.30;56.80;;;;;;10329254;28;20616;-67
2021/10/24 01:29:14;;;;;;;3.27;2.20;;;17.30;56.90;;;;;;10334343;28;20218;-67
2021/10/24 01:34:45;;;;;;;3.37;2.20;;;17.30;57.00;;;;;;10354705;28;20194;-66
2021/10/24 01:40:11;;;;;;;3.20;2.07;;;17.30;56.70;;;;;;10332990;28;20807;-66
2021/10/24 01:45:33;;;;;;;3.60;2.20;;;17.30;56.30;;;;;;10371908;28;20221;-66
2021/10/24 01:50:56;;;;;;;2.33;1.93;;;17.30;56.50;;;;;;10342007;28;20222;-66
2021/10/24 01:56:20;;;;;;;4.47;2.30;;;17.30;56.60;;;;;;10360297;28;20195;-66
2021/10/24 02:01:43;;;;;;;2.93;2.10;;;17.30;56.20;;;;;;10367169;28;20285;-66
2021/10/24 02:07:05;;;;;;;3.20;1.83;;;17.30;56.40;;;;;;10329745;28;20251;-66
2021/10/24 02:12:29;;;;;;;3.50;2.00;;;17.30;56.70;;;;;;10334840;28;20222;-66
2021/10/24 02:17:51;;;;;;;3.87;2.20;;;17.20;56.40;;;;;;10342542;28;20198;-67
2021/10/24 02:23:13;;;;;;;2.73;1.90;;;17.20;56.40;;;;;;10348182;28;20560;-66
2021/10/24 02:28:37;;;;;;;2.77;1.97;;;17.20;56.60;;;;;;10339224;28;20219;-67
2021/10/24 02:33:59;;;;;;;3.00;2.20;;;17.20;56.50;;;;;;10369118;28;20203;-66
2021/10/24 02:39:21;;;;;;;3.97;2.03;;;17.20;56.10;;;;;;10363009;28;20211;-67
2021/10/24 02:44:45;;;;;;;3.63;1.87;;;17.20;56.20;;;;;;10356246;28;20500;-67
2021/10/24 02:50:08;;;;;;;3.03;1.60;;;17.20;56.40;;;;;;10346385;28;20231;-66
2021/10/24 02:55:30;;;;;;;2.73;1.90;;;17.20;56.30;;;;;;10335386;28;20206;-66
2021/10/24 03:00:54;;;;;;;2.67;1.80;;;17.20;55.90;;;;;;10334058;28;20581;-66
2021/10/24 03:06:16;;;;;;;2.93;1.80;;;17.20;56.20;;;;;;10361457;28;20221;-66
2021/10/24 03:11:38;;;;;;;4.80;1.97;;;17.20;56.10;;;;;;10370525;28;20222;-66
2021/10/24 03:17:01;;;;;;;4.90;1.80;;;17.20;55.90;;;;;;10371456;28;20198;-66
2021/10/24 03:22:24;;;;;;;1.70;1.40;;;17.20;55.80;;;;;;10371178;28;20217;-66
2021/10/24 03:27:46;;;;;;;2.10;1.70;;;17.20;56.10;;;;;;10339148;28;20210;-66
2021/10/24 03:33:09;;;;;;;5.67;2.03;;;17.20;56.00;;;;;;10363924;28;20257;-66
2021/10/24 03:38:31;;;;;;;3.07;1.70;;;17.20;55.70;;;;;;10339351;28;20688;-67
2021/10/24 03:43:53;;;;;;;2.47;2.00;;;17.20;55.90;;;;;;10369955;28;20222;-66
2021/10/24 03:49:17;;;;;;;2.50;1.67;;;17.10;55.90;;;;;;10388007;23;20226;-66
2021/10/24 03:54:39;;;;;;;2.87;1.73;;;17.10;55.60;;;;;;10357012;28;20198;-66
2021/10/24 04:00:01;;;;;;;3.43;1.57;;;17.20;55.80;;;;;;10364977;28;20583;-66
2021/10/24 04:05:26;;;;;;;2.67;1.80;;;17.10;55.90;;;;;;10370515;28;20230;-66
2021/10/24 04:10:48;;;;;;;4.77;1.90;;;17.10;55.80;;;;;;10361870;28;20215;-66
2021/10/24 04:16:10;;;;;;;2.90;2.03;;;17.10;55.90;;;;;;10404677;28;20190;-66
2021/10/24 04:21:33;;;;;;;4.07;1.97;;;17.10;55.90;;;;;;10390756;28;20276;-66
2021/10/24 04:26:56;;;;;;;3.87;1.90;;;17.20;55.50;;;;;;10400737;28;20214;-66
2021/10/24 04:32:18;;;;;;;3.30;2.00;;;17.10;55.40;;;;;;10374715;28;20226;-66
2021/10/24 04:37:42;;;;;;;6.73;2.20;;;17.10;55.40;;;;;;10402690;28;20571;-66
2021/10/24 04:43:04;;;;;;;2.07;1.83;;;17.10;55.60;;;;;;10377419;28;20198;-66
2021/10/24 04:48:26;;;;;;;3.63;2.10;;;17.20;55.50;;;;;;10365829;28;20233;-66
2021/10/24 04:53:50;;;;;;;3.53;1.90;;;17.20;55.60;;;;;;10399416;28;20197;-65
2021/10/24 04:59:12;;;;;;;2.53;1.70;;;17.10;55.80;;;;;;10397174;28;20695;-66
2021/10/24 05:04:34;;;;;;;3.07;1.80;;;17.10;55.90;;;;;;10398168;28;20214;-65
2021/10/24 05:09:58;;;;;;;4.60;2.47;;;17.10;55.60;;;;;;10378283;28;20213;-65
2021/10/24 05:15:21;;;;;;;4.33;2.20;;;17.10;55.10;;;;;;10382934;28;20201;-66
2021/10/24 05:20:43;;;;;;;1.97;1.77;;;17.20;55.20;;;;;;10392498;28;20229;-65
2021/10/24 05:26:07;;;;;;;4.63;2.17;;;17.30;55.50;;;;;;10399618;28;20683;-65
2021/10/24 05:31:29;;;;;;;3.70;2.10;;;17.30;55.10;;;;;;10377199;28;20599;-66
2021/10/24 05:36:51;;;;;;;5.13;2.00;;;17.30;54.90;;;;;;10399952;28;20190;-66
2021/10/24 05:42:15;;;;;;;3.43;2.07;;;17.30;54.90;;;;;;10397336;28;20225;-66
2021/10/24 05:47:37;;;;;;;3.47;2.00;;;17.30;55.80;;;;;;10390098;28;20328;-66
2021/10/24 05:52:59;;;;;;;3.13;1.90;;;17.20;55.10;;;;;;10412173;28;20212;-66
2021/10/24 05:58:23;;;;;;;2.87;1.83;;;17.20;55.30;;;;;;10377666;28;20214;-66
2021/10/24 06:03:45;;;;;;;3.37;2.10;;;17.30;55.10;;;;;;10373606;28;20707;-65
2021/10/24 06:09:07;;;;;;;3.00;2.17;;;17.20;54.80;;;;;;10367294;28;20226;-65
2021/10/24 06:14:30;;;;;;;2.63;1.83;;;17.30;55.10;;;;;;10369936;28;20195;-66
2021/10/24 06:19:53;;;;;;;4.57;2.47;;;17.20;54.90;;;;;;10370354;28;20680;-66
2021/10/24 06:25:18;;;;;;;3.67;2.13;;;17.20;54.70;;;;;;10371357;28;20218;-66
2021/10/24 06:30:42;;;;;;;4.53;2.17;;;17.30;55.30;;;;;;10368117;28;20214;-66
2021/10/24 06:36:04;;;;;;;3.43;2.23;;;17.30;54.60;;;;;;10372947;28;20205;-66
2021/10/24 06:41:27;;;;;;;2.80;1.90;;;17.30;54.10;;;;;;10373894;28;20631;-65
2021/10/24 06:46:51;;;;;;;3.77;1.97;;;17.30;54.70;;;;;;10372248;28;20754;-67
2021/10/24 06:52:13;;;;;;;3.50;1.83;;;17.30;54.60;;;;;;10375878;28;20225;-66
2021/10/24 06:57:48;;;;;;;3.80;2.00;;;17.30;54.20;;;;;;10410716;28;20189;-66
2021/10/24 07:03:12;;;;;;;5.17;2.63;;;17.30;54.10;;;;;;10407183;28;20190;-65
2021/10/24 07:08:34;;;;;;;3.47;2.33;;;17.30;54.50;;;;;;10383252;28;20588;-65
2021/10/24 07:13:56;;;;;;;4.73;3.00;;;17.30;54.40;;;;;;10372917;28;20202;-63
2021/10/24 07:19:20;;;;;;;3.57;2.53;;;17.30;54.20;;;;;;10372266;28;20222;-66
2021/10/24 07:24:42;;;;;;;4.87;2.30;;;17.20;54.40;;;;;;10332467;28;20278;-65
2021/10/24 07:30:06;;;;;;;2.97;2.00;;;17.30;54.90;;;;;;10370263;28;20530;-67
2021/10/24 07:35:30;;;;;;;2.83;2.03;;;17.30;55.20;;;;;;10372159;28;20672;-67
2021/10/24 07:40:52;;;;;;;6.07;2.37;;;17.30;54.50;;;;;;10374350;28;20210;-67
2021/10/24 07:46:15;;;;;;;4.10;2.00;;;17.40;55.00;;;;;;10370439;28;20710;-67
2021/10/24 07:51:38;;;;;;;2.40;1.80;;;17.40;54.70;;;;;;10369881;28;20226;-66
2021/10/24 07:57:01;;;;;;;4.13;2.40;;;17.40;54.60;;;;;;10365483;28;20209;-66
2021/10/24 08:02:23;;;;;;;3.83;2.00;;;17.40;54.70;;;;;;10365068;28;20683;-65
2021/10/24 08:07:46;;;;;;;3.23;2.33;;;17.40;54.90;;;;;;10369594;28;20699;-64
2021/10/24 08:13:09;;;;;;;4.87;2.30;;;17.40;55.30;;;;;;10369194;28;20568;-67
2021/10/24 08:18:31;;;;;;;3.43;1.93;;;17.40;55.10;;;;;;10369015;28;20221;-66
2021/10/24 08:23:54;;;;;;;2.57;1.90;;;17.40;56.00;;;;;;10368563;28;20273;-66
2021/10/24 08:29:17;;;;;;;5.63;1.80;;;17.40;55.60;;;;;;10366486;28;20735;-65
2021/10/24 08:34:40;;;;;;;5.80;2.27;;;17.50;55.40;;;;;;10370573;28;20199;-65
2021/10/24 08:40:05;;;;;;;7.03;2.17;;;17.60;55.90;;;;;;10369657;28;20233;-64
2021/10/24 08:45:28;;;;;;;4.47;1.97;;;17.60;56.40;;;;;;10368688;28;20628;-68
2021/10/24 08:50:50;;;;;;;6.57;2.43;;;17.60;56.00;;;;;;10367739;28;20249;-65
2021/10/24 08:56:18;;;;;;;11.03;2.63;;;17.50;54.30;;;;;;10368039;28;20202;-64
2021/10/24 09:01:50;;;;;;;7.97;2.53;;;17.50;54.60;;;;;;10362366;28;20214;-65
2021/10/24 09:07:12;;;;;;;10.83;2.80;;;17.50;55.20;;;;;;10372200;28;20518;-66
2021/10/24 09:12:36;;;;;;;6.73;2.67;;;18.20;53.60;;;;;;10370976;28;20524;-67
2021/10/24 09:18:08;;;;;;;7.33;2.40;;;17.70;54.30;;;;;;10366228;28;20194;-67
2021/10/24 09:23:32;;;;;;;3.93;2.20;;;17.40;54.20;;;;;;10375991;28;20202;-66
2021/10/24 09:29:03;;;;;;;5.87;2.60;;;17.30;54.00;;;;;;10379585;28;20221;-65
2021/10/24 09:34:26;;;;;;;4.27;1.73;;;17.30;54.30;;;;;;10370204;28;20199;-65
2021/10/24 09:39:49;;;;;;;4.97;2.00;;;17.30;54.90;;;;;;10371289;28;20591;-65
2021/10/24 09:45:14;;;;;;;4.47;1.97;;;17.40;55.30;;;;;;10363696;28;20214;-64
2021/10/24 09:50:39;;;;;;;5.35;1.80;;;17.40;55.60;;;;;;10397781;23;20441;-68
2021/10/24 09:56:07;;;;;;;4.73;1.73;;;17.50;55.90;;;;;;10399203;28;20194;-67
2021/10/24 10:01:30;;;;;;;5.83;2.40;;;17.50;55.80;;;;;;10392731;28;20422;-66
2021/10/24 10:06:53;;;;;;;3.10;1.57;;;18.10;53.30;;;;;;10367027;28;20605;-67
2021/10/24 10:12:20;;;;;;;4.57;1.67;;;17.70;54.20;;;;;;10367182;28;20229;-67
2021/10/24 10:17:44;;;;;;;3.13;1.40;;;17.60;55.20;;;;;;10362767;28;20194;-67
2021/10/24 10:23:08;;;;;;;3.10;1.40;;;17.50;55.70;;;;;;10367361;28;20574;-66
2021/10/24 10:28:46;;;;;;;2.73;1.60;;;17.50;56.40;;;;;;10367643;28;20229;-66
2021/10/24 10:34:11;;;;;;;4.20;1.43;;;17.50;56.50;;;;;;10366049;28;20190;-66
2021/10/24 10:39:41;;;;;;;2.83;1.60;;;17.50;56.60;;;;;;10372437;28;20219;-66
2021/10/24 10:45:45;;;;;;;2.50;1.53;;;17.50;56.80;;;;;;10383079;28;20222;-66
2021/10/24 10:51:19;;;;;;;2.37;1.40;;;17.50;57.10;;;;;;10405159;28;20701;-66
2021/10/24 10:56:46;;;;;;;2.93;1.60;;;17.40;57.20;;;;;;10416135;28;20189;-66
2021/10/24 11:02:23;;;;;;;3.77;1.20;;;17.40;57.20;;;;;;10414939;28;20218;-66
2021/10/24 11:07:47;;;;;;;4.40;1.67;;;17.50;57.40;;;;;;10415834;28;20240;-66
2021/10/24 11:13:37;;;;;;;2.93;1.50;;;17.50;57.30;;;;;;10415365;28;20201;-66
2021/10/24 11:18:59;;;;;;;3.03;1.23;;;17.50;57.20;;;;;;10397916;28;20214;-66
2021/10/24 11:24:23;;;;;;;3.20;1.50;;;17.50;57.30;;;;;;10335812;28;20206;-66
2021/10/24 11:29:48;;;;;;;3.27;1.40;;;17.50;57.40;;;;;;10387642;28;20238;-67
2021/10/24 11:35:18;;;;;;;3.13;0.93;;;17.50;57.30;;;;;;10352985;28;20196;-67
2021/10/24 11:40:44;;;;;;;4.80;1.53;;;17.50;57.40;;;;;;10326669;28;20219;-66
2021/10/24 11:46:10;;;;;;;3.33;1.30;;;17.50;57.60;;;;;;10330950;28;20697;-67
2021/10/24 11:51:34;;;;;;;3.37;1.43;;;17.50;57.80;;;;;;10362910;28;20305;-66
2021/10/24 11:57:26;;;;;;;3.90;1.43;;;17.40;57.70;;;;;;10326439;28;20209;-67
2021/10/24 12:02:58;;;;;;;2.20;1.00;;;17.50;57.90;;;;;;10346190;28;20214;-67
2021/10/24 12:08:35;;;;;;;3.87;1.60;;;17.50;58.10;;;;;;10403552;28;20213;-67
2021/10/24 12:14:02;;;;;;;2.27;1.20;;;17.50;58.20;;;;;;10407016;28;20194;-66
2021/10/24 12:19:30;;;;;;;3.47;1.17;;;17.50;58.10;;;;;;10408466;28;20711;-66
2021/10/24 12:24:52;;;;;;;1.93;1.10;;;17.40;58.30;;;;;;10407179;28;20193;-67
2021/10/24 12:30:19;;;;;;;2.17;1.10;;;17.50;58.50;;;;;;10406379;28;20209;-67
2021/10/24 12:35:43;;;;;;;2.50;1.07;;;17.50;58.40;;;;;;10374684;28;20194;-66
2021/10/24 12:41:05;;;;;;;1.73;1.10;;;17.50;58.50;;;;;;10365423;28;20294;-66
2021/10/24 12:46:31;;;;;;;3.90;1.20;;;17.50;58.70;;;;;;10369409;28;20216;-66
2021/10/24 12:52:09;;;;;;;2.07;0.90;;;17.50;58.80;;;;;;10397222;28;20219;-67
2021/10/24 12:57:31;;;;;;;1.77;1.13;;;17.50;58.90;;;;;;10403454;28;20596;-65
2021/10/24 13:02:55;;;;;;;2.50;1.27;;;17.50;58.90;;;;;;10412136;28;20225;-67
2021/10/24 13:08:17;;;;;;;1.90;1.20;;;17.50;59.10;;;;;;10339533;28;20698;-67
2021/10/24 13:13:39;;;;;;;3.20;1.53;;;17.50;59.00;;;;;;10329445;28;20202;-66
2021/10/24 13:19:03;;;;;;;2.80;1.37;;;17.40;58.80;;;;;;10332448;28;20225;-66
2021/10/24 13:24:27;;;;;;;2.87;1.37;;;17.50;58.90;;;;;;10329325;28;20211;-66
2021/10/24 13:29:49;;;;;;;3.43;1.37;;;17.50;58.80;;;;;;10328427;28;20309;-66
2021/10/24 13:35:12;;;;;;;4.20;1.83;;;17.40;58.80;;;;;;10391847;28;20553;-66
2021/10/24 13:40:34;;;;;;;5.67;1.73;;;17.50;58.40;;;;;;10410516;28;20214;-66
2021/10/24 13:45:56;;;;;;;4.20;2.13;;;17.50;58.10;;;;;;10353427;28;20214;-67
2021/10/24 13:51:26;;;;;;;3.80;2.20;;;17.40;58.00;;;;;;10383679;28;20226;-66
2021/10/24 13:56:48;;;;;;;5.70;2.77;;;17.40;58.10;;;;;;10331205;28;20682;-66
2021/10/24 14:02:10;;;;;;;4.73;2.70;;;17.50;58.30;;;;;;10345733;28;20602;-66
2021/10/24 14:07:36;;;;;;;5.20;3.00;;;17.50;58.30;;;;;;10406356;28;20228;-65
2021/10/24 14:12:58;;;;;;;6.83;3.43;;;17.50;58.60;;;;;;10413262;28;20232;-66
2021/10/24 14:18:20;;;;;;;7.17;3.37;;;17.50;58.50;;;;;;10417328;28;20194;-66
2021/10/24 14:23:44;;;;;;;4.80;2.93;;;17.50;58.40;;;;;;10416547;28;20202;-66
2021/10/24 14:29:06;;;;;;;6.20;3.80;;;17.50;58.50;;;;;;10416483;28;20651;-67
2021/10/24 14:34:28;;;;;;;6.80;3.93;;;17.50;58.70;;;;;;10351327;28;20279;-67
2021/10/24 14:39:52;;;;;;;7.10;3.80;;;17.50;59.10;;;;;;10332368;28;20214;-67
2021/10/24 14:45:14;;;;;;;5.60;3.53;;;17.50;59.10;;;;;;10331708;28;20203;-67
2021/10/24 14:50:36;;;;;;;7.93;3.63;;;17.50;59.50;;;;;;10332035;28;20219;-67
2021/10/24 14:56:00;;;;;;;8.80;4.07;;;17.50;59.30;;;;;;10333396;28;20202;-67
2021/10/24 15:01:22;;;;;;;8.00;4.83;;;17.50;59.20;;;;;;10332889;28;20289;-67
2021/10/24 15:06:45;;;;;;;9.27;5.33;;;17.50;59.50;;;;;;10330483;28;20219;-67
2021/10/24 15:12:08;;;;;;;8.27;4.33;;;17.50;59.50;;;;;;10331348;28;20249;-67
2021/10/24 15:17:40;;;;;;;8.10;4.17;;;17.50;59.30;;;;;;10333482;28;20207;-65
2021/10/24 15:23:03;;;;;;;10.20;5.67;;;17.50;59.30;;;;;;10333658;28;20318;-66
2021/10/24 15:28:26;;;;;;;8.13;5.63;;;17.50;59.30;;;;;;10332224;28;20297;-67
2021/10/24 15:33:48;;;;;;;9.33;4.20;;;17.50;59.20;;;;;;10333079;28;20230;-66
2021/10/24 15:39:10;;;;;;;8.37;5.23;;;17.50;59.10;;;;;;10327411;28;20693;-66
2021/10/24 15:44:34;;;;;;;6.93;4.57;;;17.50;59.10;;;;;;10326779;28;20195;-66
2021/10/24 15:49:56;;;;;;;8.23;5.03;;;17.50;59.10;;;;;;10325431;28;20238;-68
2021/10/24 15:55:19;;;;;;;7.87;4.20;;;17.50;59.20;;;;;;10327295;28;20211;-67
2021/10/24 16:00:42;;;;;;;7.10;4.43;;;17.50;59.10;;;;;;10325433;28;20222;-67
2021/10/24 16:06:05;;;;;;;10.13;4.90;;;17.50;59.20;;;;;;10382362;23;20590;-68
2021/10/24 16:11:27;;;;;;;8.40;4.03;;;17.50;59.10;;;;;;10355621;28;20219;-65
2021/10/24 16:16:51;;;;;;;6.60;4.10;;;17.50;59.00;;;;;;10353082;28;20194;-65
2021/10/24 16:22:13;;;;;;;6.93;3.63;;;17.50;58.90;;;;;;10352912;28;20222;-65
2021/10/24 16:27:35;;;;;;;5.77;3.27;;;17.50;58.90;;;;;;10370062;28;20214;-66
2021/10/24 16:32:59;;;;;;;5.93;3.60;;;17.50;58.80;;;;;;10351025;28;20203;-68
2021/10/24 16:38:23;;;;;;;5.20;3.20;;;17.50;58.80;;;;;;10328511;28;20219;-69
2021/10/24 16:43:46;;;;;;;5.73;3.43;;;17.50;58.60;;;;;;10341516;28;20194;-69
2021/10/24 16:49:09;;;;;;;6.00;3.33;;;17.50;58.60;;;;;;10333465;28;20227;-69
2021/10/24 16:54:31;;;;;;;4.53;2.70;;;17.50;58.60;;;;;;10327124;28;20202;-66
2021/10/24 16:59:53;;;;;;;3.73;2.53;;;17.50;58.30;;;;;;10328700;28;20215;-67
2021/10/24 17:05:17;;;;;;;6.83;3.40;;;17.50;58.20;;;;;;10337360;28;20214;-64
2021/10/24 17:10:39;;;;;;;7.33;3.00;;;17.50;58.10;;;;;;10362933;28;20253;-65
2021/10/24 17:16:01;;;;;;;6.07;3.30;;;17.50;57.50;;;;;;10350951;28;20205;-64
2021/10/24 17:21:25;;;;;;;6.70;3.87;;;17.60;57.50;;;;;;10346255;28;20427;-63
2021/10/24 17:26:48;;;;;;;5.80;3.07;;;17.70;57.10;;;;;;10361718;28;20214;-64
2021/10/24 17:32:10;;;;;;;4.57;2.63;;;17.70;57.50;;;;;;10343515;28;20228;-63
2021/10/24 17:37:34;;;;;;;4.67;3.23;;;17.60;57.20;;;;;;10353644;28;20206;-64
2021/10/24 17:42:56;;;;;;;6.87;3.20;;;17.60;56.40;;;;;;10351057;28;20202;-64
2021/10/24 17:48:18;;;;;;;4.90;3.20;;;17.60;56.20;;;;;;10363065;28;20226;-64
2021/10/24 17:53:42;;;;;;;5.43;3.43;;;17.70;56.70;;;;;;10351715;28;20226;-64
2021/10/24 17:59:04;;;;;;;4.63;3.17;;;17.60;57.60;;;;;;10368079;28;20225;-64
2021/10/24 18:04:26;;;;;;;4.90;2.87;;;17.60;57.10;;;;;;10355180;28;20206;-63
2021/10/24 18:09:50;;;;;;;2.70;2.40;;;17.70;56.10;;;;;;10352645;28;20226;-64
2021/10/24 18:15:13;;;;;;;4.67;2.87;;;17.70;56.00;;;;;;10367853;28;20198;-64
2021/10/24 18:20:35;;;;;;;5.13;2.73;;;17.70;56.70;;;;;;10361760;28;20215;-64
2021/10/24 18:26:00;;;;;;;3.43;2.30;;;17.70;55.70;;;;;;10354265;28;20202;-63
2021/10/24 18:31:23;;;;;;;3.90;2.40;;;17.70;55.70;;;;;;10366362;28;20221;-63
2021/10/24 18:36:46;;;;;;;3.33;2.10;;;17.70;55.90;;;;;;10367842;28;20190;-63
2021/10/24 18:42:10;;;;;;;3.93;2.30;;;17.70;55.70;;;;;;10353330;28;20225;-63
2021/10/24 18:47:32;;;;;;;4.93;2.23;;;17.70;55.80;;;;;;10367282;28;20237;-63
2021/10/24 18:52:55;;;;;;;4.40;2.53;;;17.70;56.10;;;;;;10365782;28;20228;-63
2021/10/24 18:58:18;;;;;;;5.13;2.83;;;17.70;55.50;;;;;;10353063;28;20218;-64
2021/10/24 19:03:41;;;;;;;3.37;2.20;;;17.70;55.50;;;;;;10366829;28;20210;-64
2021/10/24 19:09:04;;;;;;;3.50;2.53;;;17.70;55.60;;;;;;10366034;28;20222;-64
2021/10/24 19:14:27;;;;;;;7.20;2.87;;;17.70;55.30;;;;;;10358895;28;20199;-65
2021/10/24 19:19:49;;;;;;;4.63;2.63;;;17.70;55.40;;;;;;10362601;28;20223;-64
2021/10/24 19:25:12;;;;;;;6.97;3.50;;;17.60;55.20;;;;;;10350731;28;20199;-63
2021/10/24 19:30:36;;;;;;;5.90;3.77;;;17.70;55.30;;;;;;10354033;28;20601;-64
2021/10/24 19:35:58;;;;;;;4.17;3.17;;;17.60;54.70;;;;;;10351431;28;20207;-63
2021/10/24 19:41:20;;;;;;;5.03;3.10;;;17.60;55.00;;;;;;10356637;28;20221;-64
2021/10/24 19:46:44;;;;;;;4.23;2.63;;;17.60;54.70;;;;;;10359841;28;20214;-63
2021/10/24 19:52:07;;;;;;;4.07;2.40;;;17.60;54.90;;;;;;10359996;28;20595;-63
2021/10/24 19:57:29;;;;;;;3.80;2.73;;;17.60;55.10;;;;;;10358715;28;20704;-64
2021/10/24 20:02:52;;;;;;;3.93;2.40;;;17.50;55.00;;;;;;10363348;28;20213;-63
2021/10/24 20:08:14;;;;;;;3.87;2.17;;;17.60;55.60;;;;;;10358320;28;20218;-64
2021/10/24 20:13:37;;;;;;;5.03;2.33;;;17.50;55.00;;;;;;10364782;28;20221;-64
2021/10/24 20:19:00;;;;;;;3.33;2.10;;;17.50;54.80;;;;;;10365745;28;20225;-64
2021/10/24 20:24:23;;;;;;;3.57;2.20;;;17.50;55.00;;;;;;10357390;28;20202;-65
2021/10/24 20:29:45;;;;;;;3.17;2.10;;;17.50;54.60;;;;;;10361141;28;20230;-65
2021/10/24 20:35:09;;;;;;;2.33;2.13;;;17.50;54.60;;;;;;10359213;28;20194;-64
2021/10/24 20:40:32;;;;;;;5.37;2.60;;;17.50;54.60;;;;;;10361166;28;20218;-65
2021/10/24 20:45:55;;;;;;;3.90;2.43;;;17.40;54.50;;;;;;10364393;28;20639;-63
2021/10/24 20:51:19;;;;;;;4.27;2.37;;;17.40;54.90;;;;;;10360010;28;20249;-63
2021/10/24 20:56:41;;;;;;;2.87;1.70;;;17.30;55.20;;;;;;10362772;28;20198;-64
2021/10/24 21:02:03;;;;;;;3.30;2.30;;;17.30;55.40;;;;;;10363740;28;20222;-64
2021/10/24 21:07:26;;;;;;;3.40;2.37;;;17.20;55.50;;;;;;10363151;28;20218;-64
2021/10/24 21:12:48;;;;;;;3.47;2.00;;;17.20;55.60;;;;;;10363017;28;20217;-63
2021/10/24 21:18:12;;;;;;;4.00;1.80;;;17.20;55.80;;;;;;10360048;28;20246;-63
2021/10/24 21:23:35;;;;;;;3.33;1.90;;;17.10;55.80;;;;;;10361708;28;20203;-64
2021/10/24 21:28:57;;;;;;;4.20;2.20;;;17.10;56.00;;;;;;10367928;28;20222;-64
2021/10/24 21:34:19;;;;;;;4.77;1.90;;;17.10;56.00;;;;;;10338427;28;20250;-64
2021/10/24 21:39:43;;;;;;;3.93;2.30;;;17.10;55.70;;;;;;10329866;28;20215;-63
2021/10/24 21:45:06;;;;;;;2.53;1.90;;;17.10;55.40;;;;;;10346040;28;20194;-64
2021/10/24 21:50:28;;;;;;;2.57;2.10;;;17.10;55.60;;;;;;10329796;28;20215;-64
2021/10/24 21:55:52;;;;;;;2.47;1.80;;;17.10;55.60;;;;;;10328973;28;20195;-64
2021/10/24 22:01:15;;;;;;;3.33;1.63;;;17.10;55.10;;;;;;10327460;28;20222;-64
2021/10/24 22:06:41;;;;;;;2.50;1.47;;;17.10;55.00;;;;;;10347903;23;20284;-63
2021/10/24 22:12:05;;;;;;;3.17;1.70;;;17.10;54.90;;;;;;10357267;28;20628;-63
2021/10/24 22:17:28;;;;;;;6.27;2.20;;;17.10;54.90;;;;;;10357641;28;20191;-62
2021/10/24 22:22:50;;;;;;;3.57;2.00;;;17.10;55.30;;;;;;10367014;28;20229;-62
2021/10/24 22:28:18;;;;;;;3.70;1.83;;;17.10;54.70;;;;;;10366954;28;20226;-62
2021/10/24 22:33:41;;;;;;;3.77;2.00;;;17.10;54.90;;;;;;10346627;28;20195;-64
2021/10/24 22:39:04;;;;;;;3.03;1.60;;;17.10;55.20;;;;;;10351457;28;20222;-63
2021/10/24 22:44:27;;;;;;;3.80;2.00;;;17.10;54.80;;;;;;10373630;28;20202;-65
2021/10/24 22:49:50;;;;;;;1.80;1.37;;;17.10;55.20;;;;;;10373498;28;20225;-62
2021/10/24 22:55:12;;;;;;;5.83;2.00;;;17.00;55.40;;;;;;10374321;28;20285;-63
2021/10/24 23:00:36;;;;;;;2.63;1.77;;;17.00;55.50;;;;;;10372251;28;20223;-62
2021/10/24 23:05:58;;;;;;;3.47;1.60;;;17.00;54.70;;;;;;10372932;28;20579;-63
2021/10/24 23:11:20;;;;;;;5.23;2.20;;;17.10;54.40;;;;;;10363310;28;20222;-63
2021/10/24 23:16:44;;;;;;;4.40;2.17;;;17.00;54.50;;;;;;10372143;28;20257;-64
2021/10/24 23:22:06;;;;;;;3.83;2.50;;;17.00;54.90;;;;;;10371757;28;20219;-63
2021/10/24 23:27:28;;;;;;;3.53;2.30;;;17.00;54.10;;;;;;10371403;28;20676;-63
2021/10/24 23:32:52;;;;;;;4.17;2.23;;;17.00;54.30;;;;;;10371765;28;20198;-62
2021/10/24 23:38:15;;;;;;;5.27;2.50;;;17.00;54.80;;;;;;10372475;28;20217;-64
2021/10/24 23:43:37;;;;;;;5.80;2.70;;;17.00;55.30;;;;;;10370605;28;20195;-65
2021/10/24 23:49:01;;;;;;;4.70;2.47;;;17.00;54.00;;;;;;10369929;28;20226;-64
2021/10/24 23:54:24;;;;;;;3.83;2.50;;;17.00;54.60;;;;;;10370064;28;20332;-64
2021/10/24 23:59:46;;;;;;;3.80;2.43;;;17.00;54.90;;;;;;10370421;28;20218;-65
